sensor_id;sensor_type;location;lat;lon;timestamp;pressure;altitude;pressure_sealevel;temperature;humidity
23172;BME280;11754;42.664;23.594;2023-04-08T00:00:57;95503.91;;;6.63;58.20
23172;BME280;11754;42.664;23.594;2023-04-08T00:03:22;95509.13;;;6.63;58.13
23172;BME280;11754;42.664;23.594;2023-04-08T00:05:48;95506.13;;;6.67;58.58
23172;BME280;11754;42.664;23.594;2023-04-08T00:08:13;95513.13;;;6.67;58.38
23172;BME280;11754;42.664;23.594;2023-04-08T00:10:38;95507.50;;;6.62;58.69
23172;BME280;11754;42.664;23.594;2023-04-08T00:13:04;95508.31;;;6.53;59.32
23172;BME280;11754;42.664;23.594;2023-04-08T00:15:29;95509.72;;;6.47;59.70
23172;BME280;11754;42.664;23.594;2023-04-08T00:17:55;95499.25;;;6.37;60.27
23172;BME280;11754;42.664;23.594;2023-04-08T00:20:22;95497.88;;;6.33;60.64
23172;BME280;11754;42.664;23.594;2023-04-08T00:22:48;95498.00;;;6.41;60.37
23172;BME280;11754;42.664;23.594;2023-04-08T00:25:13;95513.56;;;6.53;60.36
23172;BME280;11754;42.664;23.594;2023-04-08T00:27:39;95513.03;;;6.39;61.03
23172;BME280;11754;42.664;23.594;2023-04-08T00:30:05;95509.19;;;6.34;61.37
23172;BME280;11754;42.664;23.594;2023-04-08T00:32:30;95511.94;;;6.22;61.68
23172;BME280;11754;42.664;23.594;2023-04-08T00:34:57;95511.41;;;6.19;61.61
23172;BME280;11754;42.664;23.594;2023-04-08T00:37:23;95513.63;;;6.14;61.62
23172;BME280;11754;42.664;23.594;2023-04-08T00:39:49;95499.81;;;6.12;61.93
23172;BME280;11754;42.664;23.594;2023-04-08T00:42:16;95509.63;;;6.10;62.10
23172;BME280;11754;42.664;23.594;2023-04-08T00:44:41;95505.59;;;6.06;61.63
23172;BME280;11754;42.664;23.594;2023-04-08T00:47:11;95500.34;;;6.06;61.67
23172;BME280;11754;42.664;23.594;2023-04-08T00:49:36;95508.91;;;6.08;61.77
23172;BME280;11754;42.664;23.594;2023-04-08T00:52:02;95500.34;;;6.06;61.40
23172;BME280;11754;42.664;23.594;2023-04-08T00:54:27;95501.34;;;6.05;61.60
23172;BME280;11754;42.664;23.594;2023-04-08T00:56:52;95508.38;;;6.04;61.86
23172;BME280;11754;42.664;23.594;2023-04-08T00:59:18;95507.41;;;6.05;61.72
23172;BME280;11754;42.664;23.594;2023-04-08T01:07:31;95513.31;;;5.97;61.25
23172;BME280;11754;42.664;23.594;2023-04-08T01:09:58;95519.78;;;5.93;61.39
23172;BME280;11754;42.664;23.594;2023-04-08T01:12:28;95516.03;;;5.86;61.37
23172;BME280;11754;42.664;23.594;2023-04-08T01:15:05;95517.00;;;5.85;61.26
23172;BME280;11754;42.664;23.594;2023-04-08T01:17:32;95509.84;;;5.77;61.44
23172;BME280;11754;42.664;23.594;2023-04-08T01:20:00;95523.19;;;5.84;61.17
23172;BME280;11754;42.664;23.594;2023-04-08T01:22:33;95520.44;;;5.86;61.19
23172;BME280;11754;42.664;23.594;2023-04-08T01:25:09;95520.72;;;5.83;61.70
23172;BME280;11754;42.664;23.594;2023-04-08T01:27:37;95517.13;;;5.74;61.75
23172;BME280;11754;42.664;23.594;2023-04-08T01:30:05;95517.66;;;5.68;61.79
23172;BME280;11754;42.664;23.594;2023-04-08T01:32:33;95508.84;;;5.69;61.59
23172;BME280;11754;42.664;23.594;2023-04-08T01:34:59;95515.75;;;5.70;61.73
23172;BME280;11754;42.664;23.594;2023-04-08T01:37:27;95524.56;;;5.69;61.70
23172;BME280;11754;42.664;23.594;2023-04-08T01:39:53;95518.19;;;5.52;61.63
23172;BME280;11754;42.664;23.594;2023-04-08T01:42:19;95519.53;;;5.46;62.30
23172;BME280;11754;42.664;23.594;2023-04-08T01:44:46;95512.63;;;5.36;62.24
23172;BME280;11754;42.664;23.594;2023-04-08T01:47:13;95513.16;;;5.29;63.14
23172;BME280;11754;42.664;23.594;2023-04-08T01:49:40;95532.03;;;5.33;63.32
23172;BME280;11754;42.664;23.594;2023-04-08T01:52:08;95531.09;;;5.34;63.19
23172;BME280;11754;42.664;23.594;2023-04-08T01:54:34;95534.22;;;5.28;63.42
23172;BME280;11754;42.664;23.594;2023-04-08T01:57:03;95522.22;;;5.16;63.52
23172;BME280;11754;42.664;23.594;2023-04-08T01:59:34;95531.19;;;5.23;63.63
23172;BME280;11754;42.664;23.594;2023-04-08T02:02:01;95527.75;;;5.32;63.94
23172;BME280;11754;42.664;23.594;2023-04-08T02:04:29;95538.47;;;5.29;64.11
23172;BME280;11754;42.664;23.594;2023-04-08T02:06:55;95537.63;;;5.19;64.50
23172;BME280;11754;42.664;23.594;2023-04-08T02:09:20;95555.41;;;5.25;64.97
23172;BME280;11754;42.664;23.594;2023-04-08T02:11:46;95548.38;;;5.16;64.77
23172;BME280;11754;42.664;23.594;2023-04-08T02:14:11;95551.81;;;5.16;64.83
23172;BME280;11754;42.664;23.594;2023-04-08T02:16:47;95552.75;;;5.15;64.55
23172;BME280;11754;42.664;23.594;2023-04-08T02:19:19;95559.19;;;5.11;64.96
23172;BME280;11754;42.664;23.594;2023-04-08T02:21:51;95554.53;;;5.15;64.90
23172;BME280;11754;42.664;23.594;2023-04-08T02:24:19;95551.09;;;5.14;64.72
23172;BME280;11754;42.664;23.594;2023-04-08T02:26:48;95548.63;;;5.13;64.70
23172;BME280;11754;42.664;23.594;2023-04-08T02:29:18;95551.09;;;5.14;65.35
23172;BME280;11754;42.664;23.594;2023-04-08T02:31:44;95548.88;;;5.10;65.42
23172;BME280;11754;42.664;23.594;2023-04-08T02:34:12;95548.72;;;5.11;65.35
23172;BME280;11754;42.664;23.594;2023-04-08T02:36:38;95547.50;;;5.15;64.94
23172;BME280;11754;42.664;23.594;2023-04-08T02:39:05;95544.63;;;5.09;65.22
23172;BME280;11754;42.664;23.594;2023-04-08T02:41:30;95550.53;;;5.11;65.53
23172;BME280;11754;42.664;23.594;2023-04-08T02:43:56;95534.28;;;5.07;65.59
23172;BME280;11754;42.664;23.594;2023-04-08T02:46:22;95548.63;;;5.13;65.27
23172;BME280;11754;42.664;23.594;2023-04-08T02:48:48;95545.81;;;5.04;65.32
23172;BME280;11754;42.664;23.594;2023-04-08T02:51:13;95534.50;;;4.94;65.15
23172;BME280;11754;42.664;23.594;2023-04-08T02:53:38;95547.28;;;4.97;65.07
23172;BME280;11754;42.664;23.594;2023-04-08T02:56:04;95541.63;;;4.92;65.23
23172;BME280;11754;42.664;23.594;2023-04-08T02:58:30;95544.50;;;4.89;65.32
23172;BME280;11754;42.664;23.594;2023-04-08T03:00:55;95540.66;;;4.93;65.36
23172;BME280;11754;42.664;23.594;2023-04-08T03:03:21;95544.00;;;4.95;64.80
23172;BME280;11754;42.664;23.594;2023-04-08T03:05:53;95553.72;;;4.93;65.54
23172;BME280;11754;42.664;23.594;2023-04-08T03:08:19;95554.00;;;4.90;65.52
23172;BME280;11754;42.664;23.594;2023-04-08T03:10:44;95556.59;;;4.90;66.05
23172;BME280;11754;42.664;23.594;2023-04-08T03:13:10;95550.94;;;4.85;66.00
23172;BME280;11754;42.664;23.594;2023-04-08T03:15:35;95546.44;;;4.87;65.72
23172;BME280;11754;42.664;23.594;2023-04-08T03:18:01;95545.72;;;4.85;66.45
23172;BME280;11754;42.664;23.594;2023-04-08T03:20:26;95545.47;;;4.88;65.99
23172;BME280;11754;42.664;23.594;2023-04-08T03:22:52;95545.22;;;4.91;65.79
23172;BME280;11754;42.664;23.594;2023-04-08T03:25:17;95537.53;;;4.99;65.47
23172;BME280;11754;42.664;23.594;2023-04-08T03:27:43;95551.09;;;5.14;65.56
23172;BME280;11754;42.664;23.594;2023-04-08T03:30:08;95551.91;;;5.15;65.50
23172;BME280;11754;42.664;23.594;2023-04-08T03:32:34;95544.25;;;5.23;65.21
23172;BME280;11754;42.664;23.594;2023-04-08T03:34:59;95553.09;;;5.32;65.16
23172;BME280;11754;42.664;23.594;2023-04-08T03:37:25;95547.81;;;5.22;65.75
23172;BME280;11754;42.664;23.594;2023-04-08T03:39:50;95548.78;;;5.21;66.18
23172;BME280;11754;42.664;23.594;2023-04-08T03:42:16;95558.53;;;5.19;66.44
23172;BME280;11754;42.664;23.594;2023-04-08T03:44:42;95555.25;;;5.17;66.73
23172;BME280;11754;42.664;23.594;2023-04-08T03:47:07;95565.44;;;5.20;66.53
23172;BME280;11754;42.664;23.594;2023-04-08T03:49:33;95554.72;;;5.23;66.63
23172;BME280;11754;42.664;23.594;2023-04-08T03:51:58;95548.53;;;5.24;65.94
23172;BME280;11754;42.664;23.594;2023-04-08T03:54:23;95550.03;;;5.26;66.55
23172;BME280;11754;42.664;23.594;2023-04-08T03:56:49;95556.94;;;5.37;66.06
23172;BME280;11754;42.664;23.594;2023-04-08T03:59:14;95557.81;;;5.47;65.89
23172;BME280;11754;42.664;23.594;2023-04-08T04:01:40;95561.44;;;5.66;64.88
23172;BME280;11754;42.664;23.594;2023-04-08T04:04:05;95557.50;;;5.81;64.27
23172;BME280;11754;42.664;23.594;2023-04-08T04:06:31;95547.69;;;5.64;65.20
23172;BME280;11754;42.664;23.594;2023-04-08T04:08:56;95544.91;;;5.56;65.25
23172;BME280;11754;42.664;23.594;2023-04-08T04:11:22;95557.19;;;5.65;65.05
23172;BME280;11754;42.664;23.594;2023-04-08T04:13:48;95551.94;;;5.65;64.71
23172;BME280;11754;42.664;23.594;2023-04-08T04:16:13;95554.56;;;5.65;64.79
23172;BME280;11754;42.664;23.594;2023-04-08T04:18:39;95558.41;;;5.61;65.25
23172;BME280;11754;42.664;23.594;2023-04-08T04:21:05;95545.75;;;5.56;64.76
23172;BME280;11754;42.664;23.594;2023-04-08T04:23:31;95550.97;;;5.56;64.79
23172;BME280;11754;42.664;23.594;2023-04-08T04:25:57;95562.31;;;5.76;64.35
23172;BME280;11754;42.664;23.594;2023-04-08T04:28:22;95564.25;;;5.84;64.02
23172;BME280;11754;42.664;23.594;2023-04-08T04:30:47;95569.78;;;5.90;63.87
23172;BME280;11754;42.664;23.594;2023-04-08T04:33:13;95573.81;;;5.94;63.30
23172;BME280;11754;42.664;23.594;2023-04-08T04:35:38;95568.31;;;5.97;63.43
23172;BME280;11754;42.664;23.594;2023-04-08T04:38:04;95560.72;;;5.94;63.72
23172;BME280;11754;42.664;23.594;2023-04-08T04:40:35;95561.69;;;6.13;62.82
23172;BME280;11754;42.664;23.594;2023-04-08T04:43:00;95561.28;;;6.08;63.31
23172;BME280;11754;42.664;23.594;2023-04-08T04:45:26;95562.38;;;6.05;63.03
23172;BME280;11754;42.664;23.594;2023-04-08T04:47:51;95558.66;;;6.08;62.90
23172;BME280;11754;42.664;23.594;2023-04-08T04:50:16;95542.56;;;6.03;62.50
23172;BME280;11754;42.664;23.594;2023-04-08T04:52:42;95565.72;;;6.17;62.10
23172;BME280;11754;42.664;23.594;2023-04-08T04:55:08;95559.38;;;6.19;61.76
23172;BME280;11754;42.664;23.594;2023-04-08T04:57:33;95561.28;;;6.27;61.88
23172;BME280;11754;42.664;23.594;2023-04-08T04:59:59;95569.59;;;6.32;61.54
23172;BME280;11754;42.664;23.594;2023-04-08T05:02:25;95560.47;;;6.36;61.44
23172;BME280;11754;42.664;23.594;2023-04-08T05:04:51;95568.75;;;6.41;60.53
23172;BME280;11754;42.664;23.594;2023-04-08T05:07:18;95575.38;;;6.36;60.95
23172;BME280;11754;42.664;23.594;2023-04-08T05:09:43;95572.88;;;6.34;61.58
23172;BME280;11754;42.664;23.594;2023-04-08T05:12:09;95573.97;;;6.41;61.26
23172;BME280;11754;42.664;23.594;2023-04-08T05:14:35;95568.06;;;6.39;61.16
23172;BME280;11754;42.664;23.594;2023-04-08T05:17:00;95567.66;;;6.44;60.96
23172;BME280;11754;42.664;23.594;2023-04-08T05:19:25;95567.66;;;6.54;60.93
23172;BME280;11754;42.664;23.594;2023-04-08T05:21:51;95564.88;;;6.65;60.84
23172;BME280;11754;42.664;23.594;2023-04-08T05:24:16;95555.47;;;6.72;60.55
23172;BME280;11754;42.664;23.594;2023-04-08T05:26:42;95555.44;;;6.91;59.81
23172;BME280;11754;42.664;23.594;2023-04-08T05:29:07;95560.66;;;7.01;59.66
23172;BME280;11754;42.664;23.594;2023-04-08T05:31:33;95553.19;;;7.06;59.96
23172;BME280;11754;42.664;23.594;2023-04-08T05:33:58;95563.22;;;7.20;59.74
23172;BME280;11754;42.664;23.594;2023-04-08T05:36:23;95555.31;;;7.30;59.15
23172;BME280;11754;42.664;23.594;2023-04-08T05:38:50;95548.88;;;7.52;59.61
23172;BME280;11754;42.664;23.594;2023-04-08T05:41:15;95562.41;;;7.75;58.73
23172;BME280;11754;42.664;23.594;2023-04-08T05:43:41;95558.34;;;7.90;58.27
23172;BME280;11754;42.664;23.594;2023-04-08T05:46:09;95560.91;;;8.18;57.99
23172;BME280;11754;42.664;23.594;2023-04-08T05:48:35;95558.03;;;8.57;57.40
23172;BME280;11754;42.664;23.594;2023-04-08T05:51:01;95561.59;;;8.92;56.53
23172;BME280;11754;42.664;23.594;2023-04-08T05:53:27;95553.78;;;9.08;55.84
23172;BME280;11754;42.664;23.594;2023-04-08T05:55:53;95552.75;;;9.27;54.83
23172;BME280;11754;42.664;23.594;2023-04-08T05:58:18;95550.63;;;9.30;54.47
23172;BME280;11754;42.664;23.594;2023-04-08T06:00:44;95558.63;;;9.47;53.61
23172;BME280;11754;42.664;23.594;2023-04-08T06:03:10;95558.22;;;9.33;53.94
23172;BME280;11754;42.664;23.594;2023-04-08T06:05:35;95559.81;;;9.52;53.84
23172;BME280;11754;42.664;23.594;2023-04-08T06:08:00;95565.00;;;9.70;52.58
23172;BME280;11754;42.664;23.594;2023-04-08T06:10:26;95561.69;;;9.76;52.36
23172;BME280;11754;42.664;23.594;2023-04-08T06:12:51;95565.41;;;10.00;52.30
23172;BME280;11754;42.664;23.594;2023-04-08T06:15:17;95561.47;;;10.12;51.10
23172;BME280;11754;42.664;23.594;2023-04-08T06:17:42;95564.75;;;10.06;50.91
23172;BME280;11754;42.664;23.594;2023-04-08T06:20:08;95562.13;;;10.06;51.00
23172;BME280;11754;42.664;23.594;2023-04-08T06:22:34;95565.13;;;10.19;51.07
23172;BME280;11754;42.664;23.594;2023-04-08T06:25:01;95561.88;;;10.33;50.95
23172;BME280;11754;42.664;23.594;2023-04-08T06:27:26;95558.59;;;10.56;50.27
23172;BME280;11754;42.664;23.594;2023-04-08T06:29:52;95552.00;;;10.44;50.31
23172;BME280;11754;42.664;23.594;2023-04-08T06:32:17;95560.78;;;10.69;50.14
23172;BME280;11754;42.664;23.594;2023-04-08T06:34:46;95557.28;;;11.01;49.11
23172;BME280;11754;42.664;23.594;2023-04-08T06:37:12;95560.91;;;11.08;48.83
23172;BME280;11754;42.664;23.594;2023-04-08T06:39:38;95550.84;;;11.12;48.36
23172;BME280;11754;42.664;23.594;2023-04-08T06:42:03;95546.03;;;11.23;48.62
23172;BME280;11754;42.664;23.594;2023-04-08T06:44:28;95557.91;;;11.19;48.65
23172;BME280;11754;42.664;23.594;2023-04-08T06:46:54;95563.16;;;11.44;48.30
23172;BME280;11754;42.664;23.594;2023-04-08T06:49:20;95564.75;;;11.53;47.40
23172;BME280;11754;42.664;23.594;2023-04-08T06:51:45;95563.06;;;11.68;47.32
23172;BME280;11754;42.664;23.594;2023-04-08T06:54:11;95574.69;;;11.51;47.36
23172;BME280;11754;42.664;23.594;2023-04-08T06:56:36;95570.41;;;11.42;47.40
23172;BME280;11754;42.664;23.594;2023-04-08T06:59:02;95569.41;;;11.43;47.96
23172;BME280;11754;42.664;23.594;2023-04-08T07:01:28;95564.44;;;11.56;47.53
23172;BME280;11754;42.664;23.594;2023-04-08T07:03:54;95565.38;;;11.71;47.50
23172;BME280;11754;42.664;23.594;2023-04-08T07:06:19;95572.28;;;11.81;47.42
23172;BME280;11754;42.664;23.594;2023-04-08T07:08:45;95576.06;;;11.78;46.54
23172;BME280;11754;42.664;23.594;2023-04-08T07:11:10;95578.91;;;11.68;47.58
23172;BME280;11754;42.664;23.594;2023-04-08T07:13:36;95577.66;;;11.48;47.24
23172;BME280;11754;42.664;23.594;2023-04-08T07:16:02;95576.84;;;11.47;47.89
23172;BME280;11754;42.664;23.594;2023-04-08T07:18:27;95585.94;;;11.37;48.15
23172;BME280;11754;42.664;23.594;2023-04-08T07:20:52;95582.00;;;11.16;49.16
23172;BME280;11754;42.664;23.594;2023-04-08T07:23:18;95581.38;;;10.98;50.28
23172;BME280;11754;42.664;23.594;2023-04-08T07:25:45;95589.28;;;10.81;50.68
23172;BME280;11754;42.664;23.594;2023-04-08T07:28:11;95582.38;;;10.72;50.90
23172;BME280;11754;42.664;23.594;2023-04-08T07:30:36;95589.94;;;10.67;51.10
23172;BME280;11754;42.664;23.594;2023-04-08T07:33:02;95585.00;;;10.80;50.70
23172;BME280;11754;42.664;23.594;2023-04-08T07:35:27;95589.28;;;11.06;50.32
23172;BME280;11754;42.664;23.594;2023-04-08T07:37:53;95586.47;;;11.16;50.05
23172;BME280;11754;42.664;23.594;2023-04-08T07:40:19;95584.31;;;11.03;50.22
23172;BME280;11754;42.664;23.594;2023-04-08T07:42:45;95590.41;;;11.20;50.62
23172;BME280;11754;42.664;23.594;2023-04-08T07:45:10;95592.25;;;11.19;49.59
23172;BME280;11754;42.664;23.594;2023-04-08T07:47:36;95588.25;;;11.31;49.64
23172;BME280;11754;42.664;23.594;2023-04-08T07:50:04;95600.13;;;11.44;49.37
23172;BME280;11754;42.664;23.594;2023-04-08T07:52:30;95590.19;;;11.46;49.47
23172;BME280;11754;42.664;23.594;2023-04-08T07:54:55;95594.19;;;11.42;50.19
23172;BME280;11754;42.664;23.594;2023-04-08T07:57:21;95601.16;;;11.26;49.76
23172;BME280;11754;42.664;23.594;2023-04-08T07:59:46;95604.78;;;11.09;50.08
23172;BME280;11754;42.664;23.594;2023-04-08T08:02:11;95605.94;;;11.23;50.07
23172;BME280;11754;42.664;23.594;2023-04-08T08:04:38;95615.03;;;11.12;50.39
23172;BME280;11754;42.664;23.594;2023-04-08T08:07:03;95613.00;;;11.39;49.78
23172;BME280;11754;42.664;23.594;2023-04-08T08:09:29;95615.78;;;11.45;48.99
23172;BME280;11754;42.664;23.594;2023-04-08T08:11:54;95610.03;;;11.42;49.77
23172;BME280;11754;42.664;23.594;2023-04-08T08:14:20;95609.03;;;11.51;49.57
23172;BME280;11754;42.664;23.594;2023-04-08T08:16:46;95610.91;;;11.82;49.10
23172;BME280;11754;42.664;23.594;2023-04-08T08:19:12;95602.25;;;12.12;47.38
23172;BME280;11754;42.664;23.594;2023-04-08T08:21:38;95602.63;;;12.32;47.00
23172;BME280;11754;42.664;23.594;2023-04-08T08:24:04;95599.66;;;12.58;47.54
23172;BME280;11754;42.664;23.594;2023-04-08T08:26:30;95604.91;;;12.66;46.55
23172;BME280;11754;42.664;23.594;2023-04-08T08:28:56;95609.66;;;12.71;46.29
23172;BME280;11754;42.664;23.594;2023-04-08T08:31:21;95595.56;;;12.56;46.20
23172;BME280;11754;42.664;23.594;2023-04-08T08:33:46;95602.28;;;12.35;47.03
23172;BME280;11754;42.664;23.594;2023-04-08T08:36:12;95603.00;;;12.52;47.07
23172;BME280;11754;42.664;23.594;2023-04-08T08:38:37;95619.50;;;12.62;46.42
23172;BME280;11754;42.664;23.594;2023-04-08T08:41:03;95599.84;;;12.80;45.91
23172;BME280;11754;42.664;23.594;2023-04-08T08:43:29;95612.78;;;12.74;45.71
23172;BME280;11754;42.664;23.594;2023-04-08T08:45:57;95603.25;;;12.65;45.49
23172;BME280;11754;42.664;23.594;2023-04-08T08:48:24;95610.56;;;12.63;46.37
23172;BME280;11754;42.664;23.594;2023-04-08T08:50:49;95601.59;;;12.87;46.02
23172;BME280;11754;42.664;23.594;2023-04-08T08:53:15;95609.47;;;13.18;45.54
23172;BME280;11754;42.664;23.594;2023-04-08T08:55:41;95608.97;;;13.38;44.39
23172;BME280;11754;42.664;23.594;2023-04-08T08:58:06;95617.34;;;13.64;43.87
23172;BME280;11754;42.664;23.594;2023-04-08T09:00:33;95618.72;;;13.60;43.75
23172;BME280;11754;42.664;23.594;2023-04-08T09:03:22;95618.72;;;13.60;43.36
23172;BME280;11754;42.664;23.594;2023-04-08T09:05:58;95622.91;;;13.69;43.33
23172;BME280;11754;42.664;23.594;2023-04-08T09:08:31;95625.91;;;13.66;43.42
23172;BME280;11754;42.664;23.594;2023-04-08T09:13:39;95629.06;;;14.00;43.01
23172;BME280;11754;42.664;23.594;2023-04-08T09:16:06;95619.72;;;14.70;41.55
23172;BME280;11754;42.664;23.594;2023-04-08T09:18:34;95631.06;;;14.63;41.62
23172;BME280;11754;42.664;23.594;2023-04-08T09:21:04;95619.94;;;14.53;41.25
23172;BME280;11754;42.664;23.594;2023-04-08T09:23:48;95623.56;;;14.88;40.88
23172;BME280;11754;42.664;23.594;2023-04-08T09:26:23;95622.53;;;15.04;39.59
23172;BME280;11754;42.664;23.594;2023-04-08T09:31:34;95620.53;;;16.87;38.19
23172;BME280;11754;42.664;23.594;2023-04-08T09:34:13;95617.50;;;17.63;35.94
23172;BME280;11754;42.664;23.594;2023-04-08T09:36:40;95622.03;;;17.56;34.96
23172;BME280;11754;42.664;23.594;2023-04-08T09:39:06;95617.94;;;17.99;35.29
23172;BME280;11754;42.664;23.594;2023-04-08T09:41:36;95614.59;;;18.69;33.77
23172;BME280;11754;42.664;23.594;2023-04-08T09:44:03;95610.88;;;19.65;31.81
23172;BME280;11754;42.664;23.594;2023-04-08T09:46:37;95605.75;;;20.25;31.57
23172;BME280;11754;42.664;23.594;2023-04-08T09:49:10;95604.56;;;21.95;29.31
23172;BME280;11754;42.664;23.594;2023-04-08T09:51:48;95601.94;;;23.33;27.61
23172;BME280;11754;42.664;23.594;2023-04-08T09:54:18;95587.00;;;24.49;25.63
23172;BME280;11754;42.664;23.594;2023-04-08T09:57:00;95593.09;;;27.32;22.81
23172;BME280;11754;42.664;23.594;2023-04-08T09:59:33;95580.81;;;28.52;20.79
23172;BME280;11754;42.664;23.594;2023-04-08T10:02:06;95567.00;;;29.82;19.41
23172;BME280;11754;42.664;23.594;2023-04-08T10:04:34;95564.72;;;29.94;18.70
23172;BME280;11754;42.664;23.594;2023-04-08T10:07:05;95566.34;;;31.53;18.05
23172;BME280;11754;42.664;23.594;2023-04-08T10:09:31;95550.09;;;30.19;18.34
23172;BME280;11754;42.664;23.594;2023-04-08T10:11:57;95555.44;;;29.32;19.59
23172;BME280;11754;42.664;23.594;2023-04-08T10:14:23;95560.34;;;27.64;20.57
23172;BME280;11754;42.664;23.594;2023-04-08T10:19:51;95540.34;;;29.50;19.05
23172;BME280;11754;42.664;23.594;2023-04-08T10:27:42;95531.47;;;25.61;22.24
23172;BME280;11754;42.664;23.594;2023-04-08T10:32:58;95549.97;;;24.88;23.68
23172;BME280;11754;42.664;23.594;2023-04-08T10:35:34;95534.34;;;27.12;21.55
23172;BME280;11754;42.664;23.594;2023-04-08T10:38:01;95536.69;;;26.73;21.59
23172;BME280;11754;42.664;23.594;2023-04-08T10:40:27;95530.78;;;27.01;21.29
23172;BME280;11754;42.664;23.594;2023-04-08T10:42:55;95518.09;;;27.33;20.73
23172;BME280;11754;42.664;23.594;2023-04-08T10:45:21;95520.81;;;26.39;21.72
23172;BME280;11754;42.664;23.594;2023-04-08T10:47:46;95511.78;;;26.08;21.23
23172;BME280;11754;42.664;23.594;2023-04-08T10:50:19;95514.53;;;26.91;20.79
23172;BME280;11754;42.664;23.594;2023-04-08T10:52:49;95521.84;;;27.62;20.47
23172;BME280;11754;42.664;23.594;2023-04-08T10:55:15;95508.97;;;28.94;18.90
23172;BME280;11754;42.664;23.594;2023-04-08T10:57:42;95510.50;;;32.80;16.11
23172;BME280;11754;42.664;23.594;2023-04-08T11:00:14;95514.97;;;32.20;16.42
23172;BME280;11754;42.664;23.594;2023-04-08T11:02:41;95503.25;;;30.65;17.93
23172;BME280;11754;42.664;23.594;2023-04-08T11:05:08;95498.19;;;33.41;15.28
23172;BME280;11754;42.664;23.594;2023-04-08T11:07:43;95487.59;;;37.67;13.21
23172;BME280;11754;42.664;23.594;2023-04-08T11:10:10;95473.06;;;39.98;11.20
23172;BME280;11754;42.664;23.594;2023-04-08T11:12:36;95483.63;;;40.24;11.29
23172;BME280;11754;42.664;23.594;2023-04-08T11:15:03;95464.19;;;41.61;10.28
23172;BME280;11754;42.664;23.594;2023-04-08T11:17:29;95475.13;;;40.01;11.18
23172;BME280;11754;42.664;23.594;2023-04-08T11:19:55;95460.63;;;40.04;10.63
23172;BME280;11754;42.664;23.594;2023-04-08T11:22:27;95452.19;;;39.40;11.07
23172;BME280;11754;42.664;23.594;2023-04-08T11:24:54;95462.22;;;38.19;11.62
23172;BME280;11754;42.664;23.594;2023-04-08T11:27:20;95454.91;;;38.47;11.70
23172;BME280;11754;42.664;23.594;2023-04-08T11:29:50;95442.59;;;39.22;10.86
23172;BME280;11754;42.664;23.594;2023-04-08T11:32:15;95444.47;;;39.06;11.36
23172;BME280;11754;42.664;23.594;2023-04-08T11:34:41;95450.19;;;39.53;11.03
23172;BME280;11754;42.664;23.594;2023-04-08T11:37:07;95433.34;;;40.34;10.29
23172;BME280;11754;42.664;23.594;2023-04-08T11:39:32;95442.88;;;40.21;10.22
23172;BME280;11754;42.664;23.594;2023-04-08T11:41:58;95448.56;;;38.96;10.95
23172;BME280;11754;42.664;23.594;2023-04-08T11:44:30;95439.03;;;38.69;11.24
23172;BME280;11754;42.664;23.594;2023-04-08T11:46:57;95440.88;;;38.89;11.45
23172;BME280;11754;42.664;23.594;2023-04-08T11:49:23;95431.78;;;40.52;10.09
23172;BME280;11754;42.664;23.594;2023-04-08T11:51:58;95430.75;;;41.50;9.85
23172;BME280;11754;42.664;23.594;2023-04-08T11:54:31;95428.63;;;38.26;10.92
23172;BME280;11754;42.664;23.594;2023-04-08T11:56:58;95433.22;;;34.00;13.62
23172;BME280;11754;42.664;23.594;2023-04-08T11:59:24;95444.06;;;30.76;15.78
23172;BME280;11754;42.664;23.594;2023-04-08T12:01:51;95440.19;;;28.15;18.05
23172;BME280;11754;42.664;23.594;2023-04-08T12:04:16;95443.84;;;25.79;20.39
23172;BME280;11754;42.664;23.594;2023-04-08T12:06:42;95442.81;;;24.29;21.61
23172;BME280;11754;42.664;23.594;2023-04-08T12:09:11;95456.66;;;23.16;22.93
23172;BME280;11754;42.664;23.594;2023-04-08T12:11:37;95449.78;;;21.89;23.96
23172;BME280;11754;42.664;23.594;2023-04-08T12:14:02;95460.94;;;20.69;25.30
23172;BME280;11754;42.664;23.594;2023-04-08T12:16:28;95445.97;;;20.19;25.41
23172;BME280;11754;42.664;23.594;2023-04-08T12:18:53;95440.97;;;19.92;26.45
23172;BME280;11754;42.664;23.594;2023-04-08T12:21:18;95432.50;;;19.77;26.65
23172;BME280;11754;42.664;23.594;2023-04-08T12:23:45;95445.28;;;19.75;26.82
23172;BME280;11754;42.664;23.594;2023-04-08T12:26:10;95439.34;;;19.55;27.11
23172;BME280;11754;42.664;23.594;2023-04-08T12:28:37;95433.69;;;19.44;26.95
23172;BME280;11754;42.664;23.594;2023-04-08T12:31:03;95425.94;;;19.36;26.36
23172;BME280;11754;42.664;23.594;2023-04-08T12:33:29;95428.47;;;19.31;25.51
23172;BME280;11754;42.664;23.594;2023-04-08T12:35:55;95423.84;;;19.20;26.72
23172;BME280;11754;42.664;23.594;2023-04-08T12:38:22;95426.03;;;18.86;28.89
23172;BME280;11754;42.664;23.594;2023-04-08T12:40:47;95416.78;;;18.57;29.20
23172;BME280;11754;42.664;23.594;2023-04-08T12:43:13;95427.03;;;17.97;30.31
23172;BME280;11754;42.664;23.594;2023-04-08T12:45:38;95423.06;;;17.54;31.43
23172;BME280;11754;42.664;23.594;2023-04-08T12:48:04;95425.94;;;17.53;31.64
23172;BME280;11754;42.664;23.594;2023-04-08T12:50:29;95418.22;;;17.38;31.71
23172;BME280;11754;42.664;23.594;2023-04-08T12:52:55;95419.44;;;17.29;32.04
23172;BME280;11754;42.664;23.594;2023-04-08T12:55:20;95422.28;;;17.34;32.50
23172;BME280;11754;42.664;23.594;2023-04-08T12:57:49;95417.03;;;17.21;31.48
23172;BME280;11754;42.664;23.594;2023-04-08T13:00:15;95410.25;;;17.18;31.81
23172;BME280;11754;42.664;23.594;2023-04-08T13:02:42;95413.31;;;17.28;32.55
23172;BME280;11754;42.664;23.594;2023-04-08T13:05:09;95405.97;;;18.14;31.49
23172;BME280;11754;42.664;23.594;2023-04-08T13:07:35;95368.31;;;19.40;29.76
23172;BME280;11754;42.664;23.594;2023-04-08T13:10:00;95373.69;;;20.73;27.28
23172;BME280;11754;42.664;23.594;2023-04-08T13:12:26;95379.22;;;21.65;26.24
23172;BME280;11754;42.664;23.594;2023-04-08T13:14:51;95381.41;;;22.88;24.47